createdAt,value
2019-04-03T00:01:08.876Z,25.50
2019-04-03T00:03:40.435Z,33.15
2019-04-03T00:06:12.698Z,27.00
2019-04-03T00:08:44.262Z,26.35
2019-04-03T00:11:15.938Z,22.00
2019-04-03T00:13:47.913Z,26.40
2019-04-03T00:16:19.457Z,27.52
2019-04-03T00:18:51.432Z,28.20
2019-04-03T00:21:23.134Z,25.15
2019-04-03T00:23:54.739Z,23.40
2019-04-03T00:26:26.345Z,23.52
2019-04-03T00:28:57.915Z,23.60
2019-04-03T00:31:31.808Z,19.07
2019-04-03T00:34:03.768Z,20.05
2019-04-03T00:36:35.741Z,20.82
2019-04-03T00:39:08.356Z,21.57
2019-04-03T00:41:40.292Z,21.62
2019-04-03T00:44:11.881Z,24.27
2019-04-03T00:46:43.453Z,25.82
2019-04-03T00:49:15.080Z,25.48
2019-04-03T00:51:46.691Z,21.35
2019-04-03T00:54:18.446Z,21.23
2019-04-03T00:56:50.019Z,24.95
2019-04-03T00:59:23.036Z,26.00
2019-04-03T01:01:56.482Z,24.37
2019-04-03T01:04:30.141Z,25.17
2019-04-03T01:07:02.138Z,20.57
2019-04-03T01:09:33.719Z,16.50
2019-04-03T01:12:05.387Z,17.77
2019-04-03T01:14:36.925Z,21.07
2019-04-03T01:17:08.481Z,20.70
2019-04-03T01:19:41.379Z,30.17
2019-04-03T01:22:12.972Z,25.00
2019-04-03T01:24:44.505Z,25.70
2019-04-03T01:27:16.046Z,21.07
2019-04-03T01:29:56.654Z,23.00
2019-04-03T01:32:29.463Z,26.93
2019-04-03T01:35:11.525Z,21.93
2019-04-03T01:38:17.822Z,24.87
2019-04-03T01:41:01.638Z,20.15
2019-04-03T01:43:39.485Z,16.05
2019-04-03T01:46:27.250Z,20.32
2019-04-03T01:49:22.323Z,20.92
2019-04-03T01:52:00.881Z,20.20
2019-04-03T01:54:34.927Z,23.02
2019-04-03T01:59:51.672Z,23.50
2019-04-03T02:02:31.296Z,24.92
2019-04-03T02:05:48.406Z,17.75
2019-04-03T02:08:37.152Z,21.12
2019-04-03T02:11:08.687Z,16.25
2019-04-03T02:13:47.598Z,17.67
2019-04-03T02:16:31.442Z,25.60
2019-04-03T02:19:05.378Z,23.15
2019-04-03T02:21:36.954Z,17.95
2019-04-03T02:24:12.555Z,23.35
2019-04-03T02:26:44.098Z,18.32
2019-04-03T02:29:15.800Z,19.02
2019-04-03T02:31:49.534Z,13.60
2019-04-03T02:34:20.650Z,19.48
2019-04-03T02:36:52.587Z,19.12
2019-04-03T02:39:27.260Z,17.48
2019-04-03T02:41:58.887Z,22.02
2019-04-03T02:44:30.433Z,19.45
2019-04-03T02:47:02.379Z,21.68
2019-04-03T02:49:34.000Z,23.87
2019-04-03T02:52:05.628Z,25.37
2019-04-03T02:54:40.854Z,23.45
2019-04-03T02:57:16.283Z,27.32
2019-04-03T02:59:46.817Z,21.30
2019-04-03T03:02:18.358Z,18.87
2019-04-03T03:04:53.921Z,21.85
2019-04-03T03:07:23.410Z,23.90
2019-04-03T03:09:55.311Z,23.47
2019-04-03T03:12:29.060Z,15.95
2019-04-03T03:15:01.889Z,16.87
2019-04-03T03:17:35.477Z,18.95
2019-04-03T03:20:09.023Z,17.90
2019-04-03T03:22:42.503Z,14.83
2019-04-03T03:25:14.255Z,19.92
2019-04-03T03:27:47.893Z,19.17
2019-04-03T03:30:36.226Z,21.23
2019-04-03T03:33:19.520Z,20.12
2019-04-03T03:35:31.644Z,17.62
2019-04-03T03:38:01.582Z,19.10
2019-04-03T03:40:34.595Z,19.60
2019-04-03T03:43:06.841Z,20.45
2019-04-03T03:45:39.452Z,20.20
2019-04-03T03:48:11.551Z,15.18
2019-04-03T03:50:44.518Z,18.40
2019-04-03T03:53:17.084Z,19.05
2019-04-03T03:55:50.987Z,17.48
2019-04-03T03:58:23.337Z,20.70
2019-04-03T04:00:59.510Z,16.25
2019-04-03T04:03:30.507Z,18.42
2019-04-03T04:06:02.188Z,17.02
2019-04-03T04:08:34.283Z,17.85
2019-04-03T04:11:05.838Z,19.45
2019-04-03T04:13:37.493Z,16.07
2019-04-03T04:16:09.053Z,14.20
2019-04-03T04:18:40.684Z,18.10
2019-04-03T04:21:33.651Z,18.45
2019-04-03T04:24:05.633Z,17.95
2019-04-03T04:26:49.891Z,18.75
2019-04-03T04:29:25.078Z,14.60
2019-04-03T04:32:06.939Z,13.98
2019-04-03T04:34:38.494Z,21.17
2019-04-03T04:37:10.215Z,21.68
2019-04-03T04:39:42.854Z,16.10
2019-04-03T04:42:14.456Z,15.78
2019-04-03T04:44:45.989Z,17.60
2019-04-03T04:47:17.772Z,16.42
2019-04-03T04:49:49.314Z,18.87
2019-04-03T04:52:20.903Z,13.98
2019-04-03T04:54:52.666Z,13.10
2019-04-03T04:57:25.663Z,16.00
2019-04-03T04:59:58.284Z,15.25
2019-04-03T05:02:29.818Z,15.13
2019-04-03T05:05:01.804Z,21.77
2019-04-03T05:07:33.573Z,15.30
2019-04-03T05:10:05.988Z,13.05
2019-04-03T05:12:39.135Z,13.80
2019-04-03T05:15:11.568Z,11.00
2019-04-03T05:17:43.119Z,10.63
2019-04-03T05:20:14.812Z,11.90
2019-04-03T05:22:46.402Z,7.22
2019-04-03T05:25:18.094Z,6.87
2019-04-03T05:27:50.022Z,11.83
2019-04-03T05:30:32.296Z,12.57
2019-04-03T05:33:03.939Z,12.50
2019-04-03T05:35:37.650Z,11.55
2019-04-03T05:38:09.650Z,12.15
2019-04-03T05:40:41.245Z,11.75
2019-04-03T05:43:12.814Z,9.45
2019-04-03T05:45:44.343Z,14.80
2019-04-03T05:48:17.694Z,8.33
2019-04-03T05:50:49.558Z,11.33
2019-04-03T05:53:21.339Z,13.10
2019-04-03T05:55:53.950Z,9.65
2019-04-03T05:58:25.925Z,16.77
2019-04-03T06:01:04.517Z,13.45
2019-04-03T06:03:40.502Z,10.53
2019-04-03T06:06:04.017Z,13.70
2019-04-03T06:08:35.615Z,15.40
2019-04-03T06:11:09.194Z,12.30
2019-04-03T06:13:40.904Z,10.68
2019-04-03T06:16:12.436Z,11.53
2019-04-03T06:18:44.437Z,14.57
2019-04-03T06:21:17.338Z,14.35
2019-04-03T06:23:48.997Z,14.58
2019-04-03T06:26:20.844Z,17.02
2019-04-03T06:28:53.211Z,15.87
2019-04-03T06:31:26.442Z,15.68
2019-04-03T06:33:58.068Z,10.55
2019-04-03T06:36:29.703Z,12.65
2019-04-03T06:39:01.283Z,12.88
2019-04-03T06:41:35.973Z,13.95
2019-04-03T06:44:07.640Z,11.75
2019-04-03T06:46:39.204Z,14.38
2019-04-03T06:49:10.807Z,12.75
2019-04-03T06:51:42.352Z,12.95
2019-04-03T06:54:14.057Z,12.73
2019-04-03T06:56:45.676Z,13.50
2019-04-03T06:59:17.481Z,15.93
2019-04-03T07:01:51.986Z,15.85
2019-04-03T07:04:22.357Z,11.08
2019-04-03T07:06:55.844Z,19.70
2019-04-03T07:09:35.108Z,14.83
2019-04-03T07:12:00.442Z,16.82
2019-04-03T07:14:32.181Z,17.65
2019-04-03T07:17:05.854Z,12.80
2019-04-03T07:19:37.912Z,11.25
2019-04-03T07:22:10.316Z,16.27
2019-04-03T07:24:41.908Z,12.90
2019-04-03T07:27:15.151Z,13.55
2019-04-03T07:29:49.008Z,18.00
2019-04-03T07:32:20.417Z,9.65
2019-04-03T07:34:53.784Z,10.90
2019-04-03T07:37:25.351Z,13.70
2019-04-03T07:39:58.944Z,14.30
2019-04-03T07:42:30.445Z,8.83
2019-04-03T07:45:03.036Z,13.28
2019-04-03T07:47:35.815Z,14.75
2019-04-03T07:50:11.237Z,10.80
2019-04-03T07:52:42.254Z,9.80
2019-04-03T07:55:14.373Z,10.82
2019-04-03T07:57:45.997Z,13.13
2019-04-03T08:00:19.531Z,12.18
2019-04-03T08:02:51.728Z,7.17
2019-04-03T08:05:23.771Z,6.05
2019-04-03T08:07:55.484Z,3.92
2019-04-03T08:10:27.992Z,6.67
2019-04-03T08:13:00.653Z,6.33
2019-04-03T08:15:32.370Z,4.53
2019-04-03T08:18:04.244Z,6.78
2019-04-03T08:20:36.243Z,5.33
2019-04-03T08:23:07.873Z,9.85
2019-04-03T08:25:42.335Z,7.85
2019-04-03T08:28:13.826Z,6.33
2019-04-03T08:30:45.753Z,6.40
2019-04-03T08:33:24.030Z,5.60
2019-04-03T08:35:52.009Z,5.95
2019-04-03T08:38:23.933Z,4.55
2019-04-03T08:40:56.012Z,6.12
2019-04-03T08:43:27.829Z,5.55
2019-04-03T08:45:59.517Z,3.85
2019-04-03T08:48:31.161Z,6.75
2019-04-03T08:51:03.800Z,4.60
2019-04-03T08:53:39.325Z,8.08
2019-04-03T08:56:10.348Z,8.70
2019-04-03T08:58:41.916Z,7.17
2019-04-03T09:01:13.660Z,6.80
2019-04-03T09:03:45.850Z,5.22
2019-04-03T09:06:18.307Z,7.58
2019-04-03T09:08:50.681Z,5.60
2019-04-03T09:11:22.228Z,4.53
2019-04-03T09:13:54.953Z,5.85
2019-04-03T09:16:27.141Z,8.68
2019-04-03T09:18:58.993Z,4.78
2019-04-03T09:21:30.995Z,7.83
2019-04-03T09:24:02.711Z,6.33
2019-04-03T09:26:37.165Z,6.67
2019-04-03T09:29:08.048Z,5.65
2019-04-03T09:31:39.608Z,5.30
2019-04-03T09:34:11.162Z,4.47
2019-04-03T09:36:42.979Z,7.20
2019-04-03T09:39:15.105Z,7.67
2019-04-03T09:41:48.867Z,5.55
2019-04-03T09:44:21.300Z,7.83
2019-04-03T09:46:53.074Z,5.25
2019-04-03T09:49:24.787Z,4.60
2019-04-03T09:51:57.637Z,4.00
2019-04-03T09:54:29.590Z,7.08
2019-04-03T09:57:04.716Z,4.87
2019-04-03T09:59:37.717Z,8.00
2019-04-03T10:02:09.519Z,9.75
2019-04-03T10:04:41.064Z,6.95
2019-04-03T10:07:13.549Z,3.67
2019-04-03T10:09:46.339Z,5.65
2019-04-03T10:12:18.076Z,3.30
2019-04-03T10:14:50.099Z,5.55
2019-04-03T10:17:21.947Z,3.58
2019-04-03T10:19:53.636Z,3.87
2019-04-03T10:22:25.417Z,5.20
2019-04-03T10:24:59.982Z,6.92
2019-04-03T10:27:30.296Z,6.75
2019-04-03T10:30:01.971Z,7.22
2019-04-03T10:32:33.651Z,4.40
2019-04-03T10:35:07.286Z,4.33
2019-04-03T10:37:39.016Z,9.03
2019-04-03T10:40:12.411Z,12.45
2019-04-03T10:42:44.979Z,7.33
2019-04-03T10:45:17.461Z,8.25
2019-04-03T10:47:49.092Z,7.78
2019-04-03T10:50:20.859Z,6.80
2019-04-03T10:52:52.497Z,5.28
2019-04-03T10:55:24.099Z,6.85
2019-04-03T10:57:55.655Z,5.45
2019-04-03T11:00:28.855Z,7.62
2019-04-03T11:03:00.840Z,18.50
2019-04-03T11:05:32.608Z,8.48
2019-04-03T11:08:04.757Z,5.08
2019-04-03T11:10:36.437Z,6.55
2019-04-03T11:13:08.043Z,6.37
2019-04-03T11:15:39.596Z,10.80
2019-04-03T11:18:11.212Z,8.98
2019-04-03T11:20:44.990Z,8.48
2019-04-03T11:23:18.086Z,4.03
2019-04-03T11:25:50.230Z,7.05
2019-04-03T11:28:22.038Z,7.78
2019-04-03T11:30:55.910Z,10.63
2019-04-03T11:33:27.627Z,8.53
2019-04-03T11:35:59.185Z,10.03
2019-04-03T11:38:30.752Z,7.20
2019-04-03T11:41:12.027Z,6.95
2019-04-03T11:43:42.233Z,8.43
2019-04-03T11:46:13.950Z,6.62
2019-04-03T11:48:48.369Z,5.58
2019-04-03T11:51:20.048Z,9.08
2019-04-03T11:53:51.678Z,6.62
2019-04-03T11:56:23.311Z,7.08
2019-04-03T11:58:55.320Z,6.92
2019-04-03T12:01:27.151Z,9.13
2019-04-03T12:03:58.751Z,4.83
2019-04-03T12:06:31.054Z,7.62
2019-04-03T12:09:02.602Z,3.17
2019-04-03T12:11:37.633Z,6.17
2019-04-03T12:14:07.957Z,6.28
2019-04-03T12:16:39.629Z,6.65
2019-04-03T12:19:11.345Z,6.47
2019-04-03T12:21:45.023Z,6.40
2019-04-03T12:24:16.654Z,5.37
2019-04-03T12:26:50.484Z,8.75
2019-04-03T12:29:23.013Z,6.58
2019-04-03T12:31:55.905Z,8.38
2019-04-03T12:34:27.492Z,7.08
2019-04-03T12:36:59.232Z,9.58
2019-04-03T12:39:30.860Z,3.87
2019-04-03T12:42:02.583Z,3.83
2019-04-03T12:44:34.532Z,5.45
2019-04-03T12:47:12.141Z,6.72
2019-04-03T12:49:41.197Z,5.95
2019-04-03T12:52:13.273Z,8.43
2019-04-03T12:54:44.905Z,4.67
2019-04-03T12:57:17.849Z,5.97
2019-04-03T12:59:49.471Z,6.05
2019-04-03T13:02:21.574Z,5.53
2019-04-03T13:04:54.251Z,6.50
2019-04-03T13:07:26.176Z,5.45
2019-04-03T13:09:58.064Z,8.60
2019-04-03T13:12:30.070Z,5.22
2019-04-03T13:15:04.335Z,6.22
2019-04-03T13:17:35.930Z,6.97
2019-04-03T13:20:09.200Z,3.67
2019-04-03T13:22:42.532Z,6.50
2019-04-03T13:25:14.380Z,5.40
2019-04-03T13:27:46.165Z,6.40
2019-04-03T13:30:17.865Z,6.58
2019-04-03T13:32:58.680Z,7.05
2019-04-03T13:35:22.689Z,4.92
2019-04-03T13:37:55.870Z,6.17
2019-04-03T13:40:27.665Z,8.53
2019-04-03T13:42:59.590Z,9.03
2019-04-03T13:45:31.987Z,7.45
2019-04-03T13:48:04.864Z,6.58
2019-04-03T13:50:36.442Z,7.22
2019-04-03T13:53:09.362Z,6.75
2019-04-03T13:55:43.189Z,6.95
2019-04-03T13:58:14.841Z,3.30
2019-04-03T14:00:57.825Z,3.85
2019-04-03T14:03:21.079Z,3.62
2019-04-03T14:05:53.405Z,8.70
2019-04-03T14:08:25.569Z,3.92
2019-04-03T14:10:58.625Z,5.12
2019-04-03T14:13:31.605Z,3.80
2019-04-03T14:16:03.855Z,4.92
2019-04-03T14:18:35.533Z,6.28
2019-04-03T14:21:08.345Z,6.92
2019-04-03T14:23:41.119Z,7.40
2019-04-03T14:26:14.508Z,4.72
2019-04-03T14:28:46.534Z,8.63
2019-04-03T14:31:19.088Z,3.47
2019-04-03T14:33:50.886Z,5.90
2019-04-03T14:36:26.501Z,6.45
2019-04-03T14:38:57.133Z,6.50
2019-04-03T14:41:28.869Z,3.80
2019-04-03T14:44:02.008Z,5.95
2019-04-03T14:46:34.024Z,3.87
2019-04-03T14:49:07.871Z,6.15
2019-04-03T14:51:41.576Z,7.00
2019-04-03T14:54:14.238Z,6.92
2019-04-03T14:56:49.097Z,6.22
2019-04-03T14:59:30.285Z,9.45
2019-04-03T15:02:01.744Z,15.68
2019-04-03T15:04:36.855Z,12.78
2019-04-03T15:07:09.543Z,5.87
2019-04-03T15:09:40.879Z,8.35
2019-04-03T15:12:13.029Z,4.25
2019-04-03T15:14:44.977Z,5.05
2019-04-03T15:17:16.670Z,2.95
2019-04-03T15:19:48.415Z,4.75
2019-04-03T15:22:20.258Z,5.55
2019-04-03T15:24:51.831Z,5.15
2019-04-03T15:27:23.625Z,6.25
2019-04-03T15:29:55.564Z,7.50
2019-04-03T15:32:27.128Z,6.75
2019-04-03T15:34:59.665Z,10.63
2019-04-03T15:37:31.961Z,4.30
2019-04-03T15:40:06.175Z,3.12
2019-04-03T15:42:39.779Z,4.53
2019-04-03T15:45:12.492Z,6.37
2019-04-03T15:47:46.446Z,5.15
2019-04-03T15:50:17.519Z,4.20
2019-04-03T15:52:50.637Z,4.45
2019-04-03T15:55:24.141Z,4.72
2019-04-03T15:57:56.152Z,3.58
2019-04-03T16:00:28.434Z,5.40
2019-04-03T16:03:00.315Z,3.00
2019-04-03T16:05:34.223Z,4.62
2019-04-03T16:08:05.737Z,3.85
2019-04-03T16:10:37.412Z,7.25
2019-04-03T16:13:09.115Z,8.58
2019-04-03T16:15:40.938Z,3.20
2019-04-03T16:18:12.504Z,4.95
2019-04-03T16:20:44.035Z,7.50
2019-04-03T16:23:15.978Z,6.92
2019-04-03T16:25:49.310Z,4.15
2019-04-03T16:28:20.876Z,7.15
2019-04-03T16:30:54.358Z,4.42
2019-04-03T16:33:26.263Z,6.72
2019-04-03T16:35:58.954Z,4.70
2019-04-03T16:38:30.671Z,7.42
2019-04-03T16:41:03.663Z,4.55
2019-04-03T16:43:37.646Z,5.62
2019-04-03T16:46:11.377Z,6.53
2019-04-03T16:48:42.533Z,5.50
2019-04-03T16:51:14.441Z,4.45
2019-04-03T16:53:46.150Z,5.78
2019-04-03T16:56:18.977Z,6.40
2019-04-03T16:58:51.772Z,11.73
2019-04-03T17:01:23.406Z,5.87
2019-04-03T17:03:54.936Z,8.90
2019-04-03T17:06:26.793Z,3.47
2019-04-03T17:08:59.796Z,5.47
2019-04-03T17:11:32.732Z,3.62
2019-04-03T17:14:04.402Z,4.97
2019-04-03T17:16:37.511Z,5.50
2019-04-03T17:19:09.961Z,2.83
2019-04-03T17:21:41.514Z,5.40
2019-04-03T17:24:13.503Z,5.97
2019-04-03T17:26:50.444Z,6.90
2019-04-03T17:29:18.512Z,5.05
2019-04-03T17:31:50.441Z,10.30
2019-04-03T17:34:22.261Z,5.78
2019-04-03T17:36:54.140Z,7.33
2019-04-03T17:39:26.183Z,8.10
2019-04-03T17:41:57.756Z,9.05
2019-04-03T17:44:29.311Z,9.55
2019-04-03T17:47:01.124Z,6.00
2019-04-03T17:49:32.676Z,7.67
2019-04-03T17:52:05.123Z,9.65
2019-04-03T17:54:38.510Z,6.67
2019-04-03T17:57:11.939Z,5.12
2019-04-03T17:59:44.009Z,5.97
2019-04-03T18:02:15.597Z,6.28
2019-04-03T18:04:48.911Z,5.33
2019-04-03T18:07:20.452Z,8.10
2019-04-03T18:09:51.995Z,9.18
2019-04-03T18:12:23.551Z,7.37
2019-04-03T18:14:55.727Z,10.93
2019-04-03T18:17:29.893Z,8.15
2019-04-03T18:20:02.016Z,11.38
2019-04-03T18:22:33.605Z,12.78
2019-04-03T18:25:08.157Z,10.25
2019-04-03T18:27:39.037Z,10.82
2019-04-03T18:30:12.623Z,8.88
2019-04-03T18:32:45.891Z,9.60
2019-04-03T18:35:17.951Z,8.03
2019-04-03T18:37:49.581Z,5.75
2019-04-03T18:40:21.343Z,10.95
2019-04-03T18:42:52.991Z,7.45
2019-04-03T18:45:25.893Z,11.18
2019-04-03T18:47:58.103Z,7.55
2019-04-03T18:50:30.170Z,9.85
2019-04-03T18:53:02.542Z,12.35
2019-04-03T18:55:34.852Z,15.23
2019-04-03T18:58:06.577Z,12.88
2019-04-03T19:00:38.211Z,9.68
2019-04-03T19:03:10.124Z,7.42
2019-04-03T19:05:42.810Z,11.63
2019-04-03T19:08:17.804Z,10.63
2019-04-03T19:10:48.488Z,12.98
2019-04-03T19:13:20.050Z,14.35
2019-04-03T19:15:51.647Z,16.48
2019-04-03T19:18:23.328Z,15.28
2019-04-03T19:20:54.941Z,13.30
2019-04-03T19:23:26.683Z,8.30
2019-04-03T19:25:59.904Z,10.82
2019-04-03T19:28:34.373Z,10.55
2019-04-03T19:31:08.493Z,9.20
2019-04-03T19:33:38.986Z,7.17
2019-04-03T19:36:10.640Z,7.47
2019-04-03T19:38:43.448Z,8.70
2019-04-03T19:41:15.035Z,7.75
2019-04-03T19:43:46.658Z,10.15
2019-04-03T19:46:18.687Z,10.00
2019-04-03T19:48:50.416Z,10.38
2019-04-03T19:51:21.958Z,7.28
2019-04-03T19:53:59.529Z,8.65
2019-04-03T19:56:26.888Z,13.75
2019-04-03T19:58:59.582Z,7.40
2019-04-03T20:01:33.213Z,10.08
2019-04-03T20:04:05.924Z,10.45
2019-04-03T20:06:37.531Z,9.35
2019-04-03T20:09:10.791Z,9.55
2019-04-03T20:11:42.571Z,12.55
2019-04-03T20:14:15.386Z,10.85
2019-04-03T20:16:46.970Z,10.10
2019-04-03T20:19:18.606Z,11.00
2019-04-03T20:21:51.222Z,8.65
2019-04-03T20:24:25.208Z,11.80
2019-04-03T20:26:56.639Z,13.58
2019-04-03T20:29:31.594Z,9.25
2019-04-03T20:32:01.726Z,11.63
2019-04-03T20:34:33.350Z,12.70
2019-04-03T20:37:06.611Z,11.38
2019-04-03T20:39:38.365Z,10.13
2019-04-03T20:42:10.095Z,8.63
2019-04-03T20:44:41.727Z,8.30
2019-04-03T20:47:13.394Z,10.65
2019-04-03T20:49:45.197Z,11.30
2019-04-03T20:52:17.045Z,12.35
2019-04-03T20:54:49.019Z,12.50
2019-04-03T20:57:20.706Z,19.57
2019-04-03T21:00:01.866Z,15.30
2019-04-03T21:02:26.469Z,14.20
2019-04-03T21:04:58.103Z,13.83
2019-04-03T21:07:29.877Z,51.63
2019-04-03T21:10:01.569Z,23.85
2019-04-03T21:12:35.831Z,27.25
2019-04-03T21:15:15.627Z,13.83
2019-04-03T21:17:56.110Z,11.78
2019-04-03T21:20:36.224Z,13.10
2019-04-03T21:23:24.285Z,15.48
2019-04-03T21:26:03.284Z,10.78
2019-04-03T21:28:44.855Z,11.83
2019-04-03T21:31:26.703Z,11.05
2019-04-03T21:34:04.591Z,12.13
2019-04-03T21:36:42.509Z,14.75
2019-04-03T21:39:19.075Z,15.75
2019-04-03T21:41:56.589Z,19.80
2019-04-03T21:44:33.444Z,16.90
2019-04-03T21:47:13.696Z,14.78
2019-04-03T21:49:52.273Z,14.43
2019-04-03T21:52:29.507Z,11.40
2019-04-03T21:55:07.602Z,9.70
2019-04-03T21:57:45.100Z,8.55
2019-04-03T22:00:27.589Z,12.55
2019-04-03T22:03:06.654Z,11.50
2019-04-03T22:05:43.811Z,9.88
2019-04-03T22:08:19.552Z,8.33
2019-04-03T22:10:56.651Z,9.40
2019-04-03T22:13:32.653Z,12.00
2019-04-03T22:16:09.999Z,7.40
2019-04-03T22:18:46.591Z,8.45
2019-04-03T22:21:33.644Z,13.15
2019-04-03T22:24:16.051Z,10.70
2019-04-03T22:26:54.985Z,9.20
2019-04-03T22:29:35.104Z,9.35
2019-04-03T22:32:13.114Z,10.65
2019-04-03T22:34:56.611Z,14.50
2019-04-03T22:37:35.792Z,9.60
2019-04-03T22:40:12.860Z,9.20
2019-04-03T22:42:45.607Z,5.83
2019-04-03T22:45:18.117Z,9.68
2019-04-03T22:47:52.212Z,8.18
2019-04-03T22:50:24.317Z,9.25
2019-04-03T22:52:55.867Z,10.80
2019-04-03T22:55:27.447Z,8.85
2019-04-03T22:57:58.997Z,9.73
2019-04-03T23:00:30.553Z,10.08
2019-04-03T23:03:02.837Z,8.58
2019-04-03T23:05:35.882Z,8.78
2019-04-03T23:08:07.275Z,8.80
2019-04-03T23:10:38.691Z,12.88
2019-04-03T23:13:10.193Z,12.35
2019-04-03T23:15:42.122Z,9.35
2019-04-03T23:18:14.007Z,6.40
2019-04-03T23:20:48.157Z,8.25
2019-04-03T23:23:19.673Z,10.58
2019-04-03T23:25:51.171Z,10.25
2019-04-03T23:28:27.874Z,13.05
2019-04-03T23:30:59.343Z,12.13
2019-04-03T23:33:31.867Z,7.72
2019-04-03T23:36:03.355Z,8.48
2019-04-03T23:38:34.835Z,16.75
2019-04-03T23:41:06.809Z,10.00
2019-04-03T23:43:40.252Z,7.87
2019-04-03T23:46:12.824Z,12.53
2019-04-03T23:48:45.017Z,9.13
2019-04-03T23:51:23.151Z,9.20
2019-04-03T23:53:50.198Z,7.25
2019-04-03T23:56:21.865Z,13.00
2019-04-03T23:58:53.473Z,10.00
